sensor_id;sensor_type;location;lat;lon;timestamp;pressure;altitude;pressure_sealevel;temperature;humidity
51249;BME280;39642;47.556;18.728;2023-05-20T00:00:30;100047.75;;;20.09;58.57
51249;BME280;39642;47.556;18.728;2023-05-20T00:02:56;100038.03;;;20.09;58.57
51249;BME280;39642;47.556;18.728;2023-05-20T00:05:22;100042.47;;;20.09;58.57
51249;BME280;39642;47.556;18.728;2023-05-20T00:07:48;100033.66;;;20.08;58.55
51249;BME280;39642;47.556;18.728;2023-05-20T00:10:14;100036.31;;;20.08;58.56
51249;BME280;39642;47.556;18.728;2023-05-20T00:12:40;100039.84;;;20.09;58.55
51249;BME280;39642;47.556;18.728;2023-05-20T00:15:06;100035.47;;;20.08;58.56
51249;BME280;39642;47.556;18.728;2023-05-20T00:17:32;100035.47;;;20.08;58.54
51249;BME280;39642;47.556;18.728;2023-05-20T00:19:58;100027.53;;;20.08;58.51
51249;BME280;39642;47.556;18.728;2023-05-20T00:22:25;100031.91;;;20.09;58.49
51249;BME280;39642;47.556;18.728;2023-05-20T00:24:50;100029.31;;;20.07;58.51
51249;BME280;39642;47.556;18.728;2023-05-20T00:27:16;100025.00;;;20.06;58.52
51249;BME280;39642;47.556;18.728;2023-05-20T00:29:42;100032.03;;;20.06;58.51
51249;BME280;39642;47.556;18.728;2023-05-20T00:32:08;100028.47;;;20.07;58.49
51249;BME280;39642;47.556;18.728;2023-05-20T00:34:34;100025.91;;;20.05;58.50
51249;BME280;39642;47.556;18.728;2023-05-20T00:37:00;100020.63;;;20.05;58.49
51249;BME280;39642;47.556;18.728;2023-05-20T00:39:26;100024.13;;;20.06;58.46
51249;BME280;39642;47.556;18.728;2023-05-20T00:41:52;100026.75;;;20.06;58.44
51249;BME280;39642;47.556;18.728;2023-05-20T00:44:17;100025.06;;;20.05;58.43
51249;BME280;39642;47.556;18.728;2023-05-20T00:46:45;100031.13;;;20.07;58.42
51249;BME280;39642;47.556;18.728;2023-05-20T00:49:13;100034.63;;;20.07;58.40
51249;BME280;39642;47.556;18.728;2023-05-20T00:51:39;100042.62;;;20.06;58.41
51249;BME280;39642;47.556;18.728;2023-05-20T00:54:05;100045.25;;;20.06;58.40
51249;BME280;39642;47.556;18.728;2023-05-20T00:56:31;100047.06;;;20.05;58.37
51249;BME280;39642;47.556;18.728;2023-05-20T00:58:57;100057.63;;;20.05;58.38
51249;BME280;39642;47.556;18.728;2023-05-20T01:01:23;100048.00;;;20.04;58.38
51249;BME280;39642;47.556;18.728;2023-05-20T01:03:50;100049.69;;;20.05;58.35
51249;BME280;39642;47.556;18.728;2023-05-20T01:06:16;100048.78;;;20.06;58.33
51249;BME280;39642;47.556;18.728;2023-05-20T01:08:42;100038.28;;;20.05;58.32
51249;BME280;39642;47.556;18.728;2023-05-20T01:11:13;100040.91;;;20.05;58.34
51249;BME280;39642;47.556;18.728;2023-05-20T01:13:53;100040.06;;;20.04;58.33
51249;BME280;39642;47.556;18.728;2023-05-20T01:16:21;100047.06;;;20.05;58.28
51249;BME280;39642;47.556;18.728;2023-05-20T01:18:50;100050.66;;;20.04;58.30
51249;BME280;39642;47.556;18.728;2023-05-20T01:21:20;100047.06;;;20.05;58.28
51249;BME280;39642;47.556;18.728;2023-05-20T01:23:46;100047.06;;;20.05;58.28
51249;BME280;39642;47.556;18.728;2023-05-20T01:26:13;100047.13;;;20.04;58.27
51249;BME280;39642;47.556;18.728;2023-05-20T01:28:40;100043.63;;;20.03;58.29
51249;BME280;39642;47.556;18.728;2023-05-20T01:31:24;100048.00;;;20.04;58.27
51249;BME280;39642;47.556;18.728;2023-05-20T01:33:54;100042.72;;;20.04;58.22
51249;BME280;39642;47.556;18.728;2023-05-20T01:36:22;100040.91;;;20.05;58.22
51249;BME280;39642;47.556;18.728;2023-05-20T01:38:49;100046.22;;;20.05;58.22
51249;BME280;39642;47.556;18.728;2023-05-20T01:41:15;100047.13;;;20.04;58.21
51249;BME280;39642;47.556;18.728;2023-05-20T01:43:42;100040.16;;;20.03;58.24
51249;BME280;39642;47.556;18.728;2023-05-20T01:46:08;100037.50;;;20.03;58.21
51249;BME280;39642;47.556;18.728;2023-05-20T01:48:34;100046.34;;;20.02;58.21
51249;BME280;39642;47.556;18.728;2023-05-20T01:51:00;100034.78;;;20.04;58.18
51249;BME280;39642;47.556;18.728;2023-05-20T01:53:26;100026.09;;;20.02;58.19
51249;BME280;39642;47.556;18.728;2023-05-20T01:55:52;100037.50;;;20.03;58.19
51249;BME280;39642;47.556;18.728;2023-05-20T01:58:18;100039.31;;;20.02;58.15
51249;BME280;39642;47.556;18.728;2023-05-20T02:00:44;100027.78;;;20.03;58.13
51249;BME280;39642;47.556;18.728;2023-05-20T02:03:10;100034.84;;;20.03;58.12
51249;BME280;39642;47.556;18.728;2023-05-20T02:05:36;100037.50;;;20.03;58.09
51249;BME280;39642;47.556;18.728;2023-05-20T02:08:02;100044.47;;;20.04;58.08
51249;BME280;39642;47.556;18.728;2023-05-20T02:10:27;100028.62;;;20.04;58.05
51249;BME280;39642;47.556;18.728;2023-05-20T02:12:53;100027.78;;;20.03;58.04
51249;BME280;39642;47.556;18.728;2023-05-20T02:15:19;100036.56;;;20.04;58.06
51249;BME280;39642;47.556;18.728;2023-05-20T02:17:45;100031.38;;;20.02;58.06
51249;BME280;39642;47.556;18.728;2023-05-20T02:20:11;100026.09;;;20.02;58.04
51249;BME280;39642;47.556;18.728;2023-05-20T02:22:38;100030.50;;;20.02;58.06
51249;BME280;39642;47.556;18.728;2023-05-20T02:25:04;100032.28;;;20.01;58.04
51249;BME280;39642;47.556;18.728;2023-05-20T02:27:30;100033.13;;;20.02;58.04
51249;BME280;39642;47.556;18.728;2023-05-20T02:29:56;100029.66;;;20.01;58.01
51249;BME280;39642;47.556;18.728;2023-05-20T02:32:22;100025.19;;;20.02;58.02
51249;BME280;39642;47.556;18.728;2023-05-20T02:34:55;100033.13;;;20.02;58.00
51249;BME280;39642;47.556;18.728;2023-05-20T02:37:21;100034.00;;;20.02;57.98
51249;BME280;39642;47.556;18.728;2023-05-20T02:39:47;100040.22;;;20.01;57.97
51249;BME280;39642;47.556;18.728;2023-05-20T02:42:13;100039.38;;;20.01;57.94
51249;BME280;39642;47.556;18.728;2023-05-20T02:44:39;100034.09;;;20.01;57.93
51249;BME280;39642;47.556;18.728;2023-05-20T02:47:05;100034.94;;;20.01;57.92
51249;BME280;39642;47.556;18.728;2023-05-20T02:49:31;100033.22;;;20.00;57.91
51249;BME280;39642;47.556;18.728;2023-05-20T02:51:57;100038.53;;;20.00;57.90
51249;BME280;39642;47.556;18.728;2023-05-20T02:54:23;100043.81;;;20.00;57.87
51249;BME280;39642;47.556;18.728;2023-05-20T02:56:49;100034.16;;;19.99;57.89
51249;BME280;39642;47.556;18.728;2023-05-20T02:59:15;100034.09;;;20.01;57.85
51249;BME280;39642;47.556;18.728;2023-05-20T03:01:41;100027.09;;;20.00;57.82
51249;BME280;39642;47.556;18.728;2023-05-20T03:04:07;100030.59;;;20.00;57.81
51249;BME280;39642;47.556;18.728;2023-05-20T03:06:33;100038.53;;;20.00;57.78
51249;BME280;39642;47.556;18.728;2023-05-20T03:08:59;100034.16;;;19.99;57.80
51249;BME280;39642;47.556;18.728;2023-05-20T03:11:25;100038.59;;;19.99;57.77
51249;BME280;39642;47.556;18.728;2023-05-20T03:13:50;100035.09;;;19.98;57.78
51249;BME280;39642;47.556;18.728;2023-05-20T03:16:16;100036.78;;;19.99;57.76
51249;BME280;39642;47.556;18.728;2023-05-20T03:18:43;100044.72;;;19.99;57.76
51249;BME280;39642;47.556;18.728;2023-05-20T03:21:09;100045.59;;;20.00;57.71
51249;BME280;39642;47.556;18.728;2023-05-20T03:23:35;100056.25;;;19.98;57.69
51249;BME280;39642;47.556;18.728;2023-05-20T03:26:01;100052.75;;;19.98;57.69
51249;BME280;39642;47.556;18.728;2023-05-20T03:28:27;100049.16;;;19.99;57.66
51249;BME280;39642;47.556;18.728;2023-05-20T03:30:53;100048.31;;;19.98;57.65
51249;BME280;39642;47.556;18.728;2023-05-20T03:33:19;100051.81;;;19.99;57.57
51249;BME280;39642;47.556;18.728;2023-05-20T03:35:45;100051.81;;;19.99;57.58
51249;BME280;39642;47.556;18.728;2023-05-20T03:38:11;100055.41;;;19.98;57.55
51249;BME280;39642;47.556;18.728;2023-05-20T03:40:37;100058.88;;;19.98;57.56
51249;BME280;39642;47.556;18.728;2023-05-20T03:43:03;100056.31;;;19.96;57.56
51249;BME280;39642;47.556;18.728;2023-05-20T03:45:29;100062.44;;;19.97;57.53
51249;BME280;39642;47.556;18.728;2023-05-20T03:47:55;100058.03;;;19.98;57.52
51249;BME280;39642;47.556;18.728;2023-05-20T03:50:21;100061.59;;;19.96;57.48
51249;BME280;39642;47.556;18.728;2023-05-20T03:52:46;100057.09;;;19.99;57.43
51249;BME280;39642;47.556;18.728;2023-05-20T03:55:12;100064.09;;;20.00;57.38
51249;BME280;39642;47.556;18.728;2023-05-20T03:57:38;100058.88;;;19.98;57.35
51249;BME280;39642;47.556;18.728;2023-05-20T04:00:05;100065.03;;;19.99;57.35
51249;BME280;39642;47.556;18.728;2023-05-20T04:02:39;100067.66;;;19.99;57.33
51249;BME280;39642;47.556;18.728;2023-05-20T04:05:05;100067.66;;;19.99;57.30
51249;BME280;39642;47.556;18.728;2023-05-20T04:07:33;100068.50;;;19.99;57.31
51249;BME280;39642;47.556;18.728;2023-05-20T04:10:00;100071.25;;;19.98;57.30
51249;BME280;39642;47.556;18.728;2023-05-20T04:12:26;100065.97;;;19.98;57.31
51249;BME280;39642;47.556;18.728;2023-05-20T04:14:58;100074.75;;;19.98;57.30
51249;BME280;39642;47.556;18.728;2023-05-20T04:17:29;100065.88;;;19.99;57.25
51249;BME280;39642;47.556;18.728;2023-05-20T04:19:56;100071.25;;;19.98;57.24
51249;BME280;39642;47.556;18.728;2023-05-20T04:22:25;100066.75;;;20.00;57.23
51249;BME280;39642;47.556;18.728;2023-05-20T04:24:51;100071.25;;;19.98;57.22
51249;BME280;39642;47.556;18.728;2023-05-20T04:27:17;100079.97;;;20.00;57.21
51249;BME280;39642;47.556;18.728;2023-05-20T04:29:45;100078.25;;;19.99;57.21
51249;BME280;39642;47.556;18.728;2023-05-20T04:32:12;100078.25;;;19.99;57.18
51249;BME280;39642;47.556;18.728;2023-05-20T04:34:38;100082.59;;;20.00;57.16
51249;BME280;39642;47.556;18.728;2023-05-20T04:37:05;100079.97;;;20.00;57.14
51249;BME280;39642;47.556;18.728;2023-05-20T04:39:32;100078.25;;;19.99;57.13
51249;BME280;39642;47.556;18.728;2023-05-20T04:41:58;100084.37;;;19.99;57.09
51249;BME280;39642;47.556;18.728;2023-05-20T04:44:24;100085.25;;;20.00;57.07
51249;BME280;39642;47.556;18.728;2023-05-20T04:46:51;100086.09;;;20.00;57.05
51249;BME280;39642;47.556;18.728;2023-05-20T04:49:17;100080.81;;;20.00;57.04
51249;BME280;39642;47.556;18.728;2023-05-20T04:51:43;100086.94;;;20.01;57.01
51249;BME280;39642;47.556;18.728;2023-05-20T04:54:09;100086.94;;;20.01;57.00
51249;BME280;39642;47.556;18.728;2023-05-20T04:56:35;100086.00;;;20.02;56.98
51249;BME280;39642;47.556;18.728;2023-05-20T04:59:01;100081.59;;;20.02;56.95
51249;BME280;39642;47.556;18.728;2023-05-20T05:01:27;100077.22;;;20.01;56.95
51249;BME280;39642;47.556;18.728;2023-05-20T05:03:52;100074.56;;;20.01;56.92
51249;BME280;39642;47.556;18.728;2023-05-20T05:06:19;100084.22;;;20.02;56.88
51249;BME280;39642;47.556;18.728;2023-05-20T05:08:45;100080.66;;;20.03;56.88
51249;BME280;39642;47.556;18.728;2023-05-20T05:11:11;100074.50;;;20.03;56.87
51249;BME280;39642;47.556;18.728;2023-05-20T05:13:36;100079.78;;;20.03;56.86
51249;BME280;39642;47.556;18.728;2023-05-20T05:16:02;100084.13;;;20.04;56.84
51249;BME280;39642;47.556;18.728;2023-05-20T05:18:28;100084.13;;;20.04;56.81
51249;BME280;39642;47.556;18.728;2023-05-20T05:20:59;100092.06;;;20.04;56.81
51249;BME280;39642;47.556;18.728;2023-05-20T05:23:25;100090.31;;;20.04;56.80
51249;BME280;39642;47.556;18.728;2023-05-20T05:25:51;100088.50;;;20.05;56.78
51249;BME280;39642;47.556;18.728;2023-05-20T05:28:17;100095.50;;;20.06;56.76
51249;BME280;39642;47.556;18.728;2023-05-20T05:30:43;100090.19;;;20.06;56.76
51249;BME280;39642;47.556;18.728;2023-05-20T05:33:09;100102.56;;;20.05;56.76
51249;BME280;39642;47.556;18.728;2023-05-20T05:35:35;100094.63;;;20.05;56.72
51249;BME280;39642;47.556;18.728;2023-05-20T05:38:01;100095.50;;;20.06;56.75
51249;BME280;39642;47.556;18.728;2023-05-20T05:40:27;100093.78;;;20.05;56.74
51249;BME280;39642;47.556;18.728;2023-05-20T05:42:52;100102.56;;;20.05;56.73
51249;BME280;39642;47.556;18.728;2023-05-20T05:45:18;100105.28;;;20.04;56.73
51249;BME280;39642;47.556;18.728;2023-05-20T05:47:44;100114.94;;;20.05;56.73
51249;BME280;39642;47.556;18.728;2023-05-20T05:50:10;100105.22;;;20.05;56.70
51249;BME280;39642;47.556;18.728;2023-05-20T05:52:36;100116.62;;;20.06;56.69
51249;BME280;39642;47.556;18.728;2023-05-20T05:55:02;100113.12;;;20.05;56.69
51249;BME280;39642;47.556;18.728;2023-05-20T05:57:28;100114.94;;;20.05;56.66
51249;BME280;39642;47.556;18.728;2023-05-20T05:59:54;100119.38;;;20.04;56.64
51249;BME280;39642;47.556;18.728;2023-05-20T06:02:21;100107.94;;;20.04;56.66
51249;BME280;39642;47.556;18.728;2023-05-20T06:04:47;100104.38;;;20.05;56.71
51249;BME280;39642;47.556;18.728;2023-05-20T06:07:12;100103.53;;;20.04;56.69
51249;BME280;39642;47.556;18.728;2023-05-20T06:09:38;100110.56;;;20.04;56.63
51249;BME280;39642;47.556;18.728;2023-05-20T06:12:04;100107.94;;;20.04;56.64
51249;BME280;39642;47.556;18.728;2023-05-20T06:14:30;100108.81;;;20.04;56.64
51249;BME280;39642;47.556;18.728;2023-05-20T06:16:57;100111.44;;;20.04;56.65
51249;BME280;39642;47.556;18.728;2023-05-20T06:19:23;100114.09;;;20.04;56.65
51249;BME280;39642;47.556;18.728;2023-05-20T06:21:49;100122.03;;;20.04;56.66
51249;BME280;39642;47.556;18.728;2023-05-20T06:24:14;100117.56;;;20.05;56.63
51249;BME280;39642;47.556;18.728;2023-05-20T06:26:40;100118.44;;;20.05;56.61
51249;BME280;39642;47.556;18.728;2023-05-20T06:29:06;100114.94;;;20.05;56.56
51249;BME280;39642;47.556;18.728;2023-05-20T06:31:32;100112.28;;;20.05;56.50
51249;BME280;39642;47.556;18.728;2023-05-20T06:33:58;100114.94;;;20.05;56.49
51249;BME280;39642;47.556;18.728;2023-05-20T06:36:25;100109.66;;;20.05;56.46
51249;BME280;39642;47.556;18.728;2023-05-20T06:38:51;100103.53;;;20.04;56.43
51249;BME280;39642;47.556;18.728;2023-05-20T06:41:17;100103.53;;;20.04;56.43
51249;BME280;39642;47.556;18.728;2023-05-20T06:43:43;100107.94;;;20.04;56.42
51249;BME280;39642;47.556;18.728;2023-05-20T06:46:09;100110.50;;;20.05;56.41
51249;BME280;39642;47.556;18.728;2023-05-20T06:48:35;100103.41;;;20.06;56.24
51249;BME280;39642;47.556;18.728;2023-05-20T06:51:01;100103.53;;;20.04;56.35
51249;BME280;39642;47.556;18.728;2023-05-20T06:53:27;100103.53;;;20.04;56.26
51249;BME280;39642;47.556;18.728;2023-05-20T06:55:53;100098.22;;;20.04;56.40
51249;BME280;39642;47.556;18.728;2023-05-20T06:58:22;100095.50;;;20.06;56.39
51249;BME280;39642;47.556;18.728;2023-05-20T07:00:48;100088.44;;;20.06;56.37
51249;BME280;39642;47.556;18.728;2023-05-20T07:03:14;100084.00;;;20.07;56.34
51249;BME280;39642;47.556;18.728;2023-05-20T07:05:40;100083.03;;;20.08;56.33
51249;BME280;39642;47.556;18.728;2023-05-20T07:08:05;100082.97;;;20.09;56.31
51249;BME280;39642;47.556;18.728;2023-05-20T07:10:31;100086.47;;;20.10;56.28
51249;BME280;39642;47.556;18.728;2023-05-20T07:12:57;100089.88;;;20.12;56.27
51249;BME280;39642;47.556;18.728;2023-05-20T07:15:23;100089.03;;;20.11;56.25
51249;BME280;39642;47.556;18.728;2023-05-20T07:17:49;100090.66;;;20.14;56.19
51249;BME280;39642;47.556;18.728;2023-05-20T07:20:15;100089.72;;;20.15;56.17
51249;BME280;39642;47.556;18.728;2023-05-20T07:22:41;100082.72;;;20.14;56.12
51249;BME280;39642;47.556;18.728;2023-05-20T07:25:09;100082.66;;;20.15;56.12
51249;BME280;39642;47.556;18.728;2023-05-20T07:27:35;100080.03;;;20.15;56.09
51249;BME280;39642;47.556;18.728;2023-05-20T07:30:01;100081.72;;;20.16;56.08
51249;BME280;39642;47.556;18.728;2023-05-20T07:32:27;100074.63;;;20.17;56.09
51249;BME280;39642;47.556;18.728;2023-05-20T07:34:53;100077.28;;;20.17;56.08
51249;BME280;39642;47.556;18.728;2023-05-20T07:37:19;100075.50;;;20.17;56.08
51249;BME280;39642;47.556;18.728;2023-05-20T07:39:45;100073.72;;;20.18;56.12
51249;BME280;39642;47.556;18.728;2023-05-20T07:42:10;100085.06;;;20.20;56.10
51249;BME280;39642;47.556;18.728;2023-05-20T07:44:36;100082.25;;;20.23;56.08
51249;BME280;39642;47.556;18.728;2023-05-20T07:47:03;100077.81;;;20.24;56.06
51249;BME280;39642;47.556;18.728;2023-05-20T07:49:29;100076.88;;;20.25;56.07
51249;BME280;39642;47.556;18.728;2023-05-20T07:51:55;100077.75;;;20.25;56.06
51249;BME280;39642;47.556;18.728;2023-05-20T07:54:22;100072.38;;;20.27;56.07
51249;BME280;39642;47.556;18.728;2023-05-20T07:56:48;100070.66;;;20.26;56.06
51249;BME280;39642;47.556;18.728;2023-05-20T07:59:14;100065.28;;;20.27;56.08
51249;BME280;39642;47.556;18.728;2023-05-20T08:01:40;100065.28;;;20.27;56.06
51249;BME280;39642;47.556;18.728;2023-05-20T08:04:07;100064.28;;;20.30;56.05
51249;BME280;39642;47.556;18.728;2023-05-20T08:06:33;100058.97;;;20.30;56.07
51249;BME280;39642;47.556;18.728;2023-05-20T08:09:01;100059.81;;;20.30;56.05
51249;BME280;39642;47.556;18.728;2023-05-20T08:11:26;100059.75;;;20.32;56.01
51249;BME280;39642;47.556;18.728;2023-05-20T08:13:52;100061.44;;;20.33;56.04
51249;BME280;39642;47.556;18.728;2023-05-20T08:16:20;100063.19;;;20.34;56.06
51249;BME280;39642;47.556;18.728;2023-05-20T08:18:46;100057.87;;;20.34;56.09
51249;BME280;39642;47.556;18.728;2023-05-20T08:21:12;100059.59;;;20.35;56.52
51249;BME280;39642;47.556;18.728;2023-05-20T08:23:38;100057.81;;;20.35;56.27
51249;BME280;39642;47.556;18.728;2023-05-20T08:26:04;100049.94;;;20.34;56.31
51249;BME280;39642;47.556;18.728;2023-05-20T08:28:30;100055.25;;;20.34;56.44
51249;BME280;39642;47.556;18.728;2023-05-20T08:30:56;100054.28;;;20.35;56.45
51249;BME280;39642;47.556;18.728;2023-05-20T08:33:24;100049.00;;;20.35;57.71
51249;BME280;39642;47.556;18.728;2023-05-20T08:35:51;100050.72;;;20.36;57.25
51249;BME280;39642;47.556;18.728;2023-05-20T08:38:17;100055.91;;;20.37;57.89
51249;BME280;39642;47.556;18.728;2023-05-20T08:40:43;100056.78;;;20.38;57.33
51249;BME280;39642;47.556;18.728;2023-05-20T08:43:08;100050.56;;;20.39;57.13
51249;BME280;39642;47.556;18.728;2023-05-20T08:45:36;100047.84;;;20.41;56.63
51249;BME280;39642;47.556;18.728;2023-05-20T08:48:03;100043.31;;;20.43;56.40
51249;BME280;39642;47.556;18.728;2023-05-20T08:50:32;100045.97;;;20.43;57.14
51249;BME280;39642;47.556;18.728;2023-05-20T08:52:58;100046.81;;;20.43;56.69
51249;BME280;39642;47.556;18.728;2023-05-20T08:55:29;100039.66;;;20.45;56.28
51249;BME280;39642;47.556;18.728;2023-05-20T08:57:58;100044.00;;;20.46;59.35
51249;BME280;39642;47.556;18.728;2023-05-20T09:00:24;100038.69;;;20.46;58.20
51249;BME280;39642;47.556;18.728;2023-05-20T09:02:54;100032.50;;;20.47;59.60
51249;BME280;39642;47.556;18.728;2023-05-20T09:05:21;100033.34;;;20.48;56.94
51249;BME280;39642;47.556;18.728;2023-05-20T09:07:47;100025.41;;;20.48;56.67
51249;BME280;39642;47.556;18.728;2023-05-20T09:10:13;100030.63;;;20.49;59.58
51249;BME280;39642;47.556;18.728;2023-05-20T09:12:39;100032.31;;;20.50;60.02
51249;BME280;39642;47.556;18.728;2023-05-20T09:15:06;100022.56;;;20.51;60.34
51249;BME280;39642;47.556;18.728;2023-05-20T09:17:36;100027.78;;;20.52;60.63
51249;BME280;39642;47.556;18.728;2023-05-20T09:20:11;100031.22;;;20.54;60.78
51249;BME280;39642;47.556;18.728;2023-05-20T09:22:38;100027.72;;;20.54;60.78
51249;BME280;39642;47.556;18.728;2023-05-20T09:25:05;100023.19;;;20.56;60.72
51249;BME280;39642;47.556;18.728;2023-05-20T09:27:31;100024.97;;;20.55;61.14
51249;BME280;39642;47.556;18.728;2023-05-20T09:29:57;100022.28;;;20.57;61.28
51249;BME280;39642;47.556;18.728;2023-05-20T09:32:23;100021.44;;;20.56;60.93
51249;BME280;39642;47.556;18.728;2023-05-20T09:34:51;100017.84;;;20.57;60.91
51249;BME280;39642;47.556;18.728;2023-05-20T09:37:17;100018.78;;;20.56;61.40
51249;BME280;39642;47.556;18.728;2023-05-20T09:40:02;100016.06;;;20.58;61.11
51249;BME280;39642;47.556;18.728;2023-05-20T09:45:06;100001.97;;;20.57;61.38
51249;BME280;39642;47.556;18.728;2023-05-20T09:47:38;100007.25;;;20.57;60.58
51249;BME280;39642;47.556;18.728;2023-05-20T09:50:07;100000.19;;;20.58;61.31
51249;BME280;39642;47.556;18.728;2023-05-20T09:52:37;100001.03;;;20.58;61.70
51249;BME280;39642;47.556;18.728;2023-05-20T09:55:08;99998.41;;;20.58;61.97
51249;BME280;39642;47.556;18.728;2023-05-20T09:57:36;99984.22;;;20.59;62.11
51249;BME280;39642;47.556;18.728;2023-05-20T10:00:04;99995.63;;;20.60;62.33
51249;BME280;39642;47.556;18.728;2023-05-20T10:02:32;99988.59;;;20.61;62.03
51249;BME280;39642;47.556;18.728;2023-05-20T10:05:02;99984.97;;;20.62;62.32
51249;BME280;39642;47.556;18.728;2023-05-20T10:10:42;99980.53;;;20.62;62.33
51249;BME280;39642;47.556;18.728;2023-05-20T10:16:16;99980.47;;;20.64;62.29
51249;BME280;39642;47.556;18.728;2023-05-20T10:18:59;99976.03;;;20.64;62.57
51249;BME280;39642;47.556;18.728;2023-05-20T10:21:29;99965.44;;;20.64;62.69
51249;BME280;39642;47.556;18.728;2023-05-20T10:24:07;99973.38;;;20.64;62.71
51249;BME280;39642;47.556;18.728;2023-05-20T10:26:38;99966.28;;;20.65;62.80
51249;BME280;39642;47.556;18.728;2023-05-20T10:29:14;99964.50;;;20.65;62.86
51249;BME280;39642;47.556;18.728;2023-05-20T10:31:47;99962.72;;;20.66;62.82
51249;BME280;39642;47.556;18.728;2023-05-20T10:34:18;99961.88;;;20.65;62.99
51249;BME280;39642;47.556;18.728;2023-05-20T10:39:30;99952.97;;;20.66;62.98
51249;BME280;39642;47.556;18.728;2023-05-20T10:42:05;99956.47;;;20.67;62.93
51249;BME280;39642;47.556;18.728;2023-05-20T10:44:41;99951.09;;;20.68;62.80
51249;BME280;39642;47.556;18.728;2023-05-20T10:47:08;99950.34;;;20.66;62.69
51249;BME280;39642;47.556;18.728;2023-05-20T10:49:34;99954.69;;;20.67;62.55
51249;BME280;39642;47.556;18.728;2023-05-20T10:52:00;99950.34;;;20.66;62.62
51249;BME280;39642;47.556;18.728;2023-05-20T10:54:27;99949.41;;;20.67;62.73
51249;BME280;39642;47.556;18.728;2023-05-20T10:56:54;99944.12;;;20.67;62.89
51249;BME280;39642;47.556;18.728;2023-05-20T10:59:20;99946.75;;;20.67;62.63
51249;BME280;39642;47.556;18.728;2023-05-20T11:01:47;99936.19;;;20.67;62.85
51249;BME280;39642;47.556;18.728;2023-05-20T11:04:14;99940.50;;;20.68;63.12
51249;BME280;39642;47.556;18.728;2023-05-20T11:06:49;99930.78;;;20.69;62.82
51249;BME280;39642;47.556;18.728;2023-05-20T11:09:15;99934.31;;;20.69;62.97
51249;BME280;39642;47.556;18.728;2023-05-20T11:11:41;99929.84;;;20.70;62.95
51249;BME280;39642;47.556;18.728;2023-05-20T11:14:09;99931.66;;;20.69;63.05
51249;BME280;39642;47.556;18.728;2023-05-20T11:16:38;99926.38;;;20.69;63.17
51249;BME280;39642;47.556;18.728;2023-05-20T11:19:15;99935.16;;;20.70;63.08
51249;BME280;39642;47.556;18.728;2023-05-20T11:21:42;99932.50;;;20.70;63.15
51249;BME280;39642;47.556;18.728;2023-05-20T11:24:08;99928.06;;;20.70;63.17
51249;BME280;39642;47.556;18.728;2023-05-20T11:26:35;99924.44;;;20.71;63.08
51249;BME280;39642;47.556;18.728;2023-05-20T11:29:01;99927.09;;;20.71;63.04
51249;BME280;39642;47.556;18.728;2023-05-20T11:31:27;99920.13;;;20.70;63.17
51249;BME280;39642;47.556;18.728;2023-05-20T11:33:53;99926.19;;;20.72;63.01
51249;BME280;39642;47.556;18.728;2023-05-20T11:36:21;99920.13;;;20.70;63.05
51249;BME280;39642;47.556;18.728;2023-05-20T11:38:47;99915.66;;;20.71;62.80
51249;BME280;39642;47.556;18.728;2023-05-20T11:41:12;99916.50;;;20.71;62.79
51249;BME280;39642;47.556;18.728;2023-05-20T11:43:38;99920.03;;;20.72;62.96
51249;BME280;39642;47.556;18.728;2023-05-20T11:46:08;99916.44;;;20.73;63.08
51249;BME280;39642;47.556;18.728;2023-05-20T11:48:34;99918.25;;;20.72;63.09
51249;BME280;39642;47.556;18.728;2023-05-20T11:51:01;99905.00;;;20.72;62.93
51249;BME280;39642;47.556;18.728;2023-05-20T11:53:27;99906.69;;;20.73;63.17
51249;BME280;39642;47.556;18.728;2023-05-20T11:56:00;99909.34;;;20.73;63.14
51249;BME280;39642;47.556;18.728;2023-05-20T11:58:30;99906.69;;;20.73;63.12
51249;BME280;39642;47.556;18.728;2023-05-20T12:00:57;99899.63;;;20.74;63.21
51249;BME280;39642;47.556;18.728;2023-05-20T12:03:23;99893.47;;;20.73;63.10
51249;BME280;39642;47.556;18.728;2023-05-20T12:05:49;99905.78;;;20.74;63.12
51249;BME280;39642;47.556;18.728;2023-05-20T12:08:18;99905.84;;;20.73;63.05
51249;BME280;39642;47.556;18.728;2023-05-20T12:10:43;99899.63;;;20.74;63.04
51249;BME280;39642;47.556;18.728;2023-05-20T12:13:09;99897.91;;;20.73;63.10
51249;BME280;39642;47.556;18.728;2023-05-20T12:15:38;99903.22;;;20.73;62.96
51249;BME280;39642;47.556;18.728;2023-05-20T12:18:04;99899.72;;;20.72;61.95
51249;BME280;39642;47.556;18.728;2023-05-20T12:20:31;99900.56;;;20.73;62.49
51249;BME280;39642;47.556;18.728;2023-05-20T12:23:01;99896.13;;;20.73;62.47
51249;BME280;39642;47.556;18.728;2023-05-20T12:25:28;99897.91;;;20.73;62.52
51249;BME280;39642;47.556;18.728;2023-05-20T12:27:54;99885.72;;;20.70;52.51
51249;BME280;39642;47.556;18.728;2023-05-20T12:30:21;99885.53;;;20.73;51.71
51249;BME280;39642;47.556;18.728;2023-05-20T12:32:49;99903.63;;;20.81;52.45
51249;BME280;39642;47.556;18.728;2023-05-20T12:35:39;99886.63;;;20.85;52.29
51249;BME280;39642;47.556;18.728;2023-05-20T12:38:06;99887.22;;;20.90;51.78
51249;BME280;39642;47.556;18.728;2023-05-20T12:40:32;99881.56;;;20.96;50.99
51249;BME280;39642;47.556;18.728;2023-05-20T12:43:00;99889.31;;;20.99;50.13
51249;BME280;39642;47.556;18.728;2023-05-20T12:45:26;99889.88;;;21.05;49.11
51249;BME280;39642;47.556;18.728;2023-05-20T12:47:53;99881.88;;;21.06;49.10
51249;BME280;39642;47.556;18.728;2023-05-20T12:50:20;99876.56;;;21.06;49.03
51249;BME280;39642;47.556;18.728;2023-05-20T12:52:46;99877.50;;;21.05;48.46